Renner Field-Goodland Municipal Airport Goodland US
ICAO: KGLD
IATA: GLD
Category: Medium
Scheduled Services: No

Elevation: 3656 ft
TransAlt. 18000 ft.

Airport Communications:
ASOS:121.025
DENVER CNTR:132.5
WICHITA RDO:122.4
CTAF/UNICOM:122.95

KGLD Zoom In..

If you have problems with the map follow the link
https://www.worldairports.se/pages/airport.php?
ICAO=KGLD

Runways:

(A) RW 05 length 3501 ft width 75 ft
---- / hdg 54

(B) RW 12 length 5499 ft width 100 ft
---- / hdg 125

(C) RW 17 length 1781 ft width 40 ft
---- / hdg 171

(D) RW 23 length 3501 ft width 75 ft
---- / hdg 234

(E) RW 30 length 5499 ft width 100 ft
ILS 108.90 / hdg 305

(F) RW 35 length 1781 ft width 40 ft
---- / hdg 351

Location; KGLD
Day. 23 / Time. 06.53 Zulu
* Altimeter: 30.24
* Temperature: 03° c. 37.4°f.
* Wind from: 330° Speed 05 kn.
Dewpoint: 03° c.
Visibility: 10 Statute Miles.
Clouds: Clear (automated report).

KGLD 230653Z AUTO 33005KT 10SM CLR 03/03 A3024 RMK AO2 SLP228 T00330028 402220028


Wind From 330°
Speed 05 kn.

 
 
jpsmedia.com for Web Design worldairports.se 2018   terms of use